createdAt,value
2023-01-11T00:01:27.245Z,2.67
2023-01-11T00:04:30.748Z,2.58
2023-01-11T00:07:34.663Z,2.54
2023-01-11T00:10:37.938Z,2.44
2023-01-11T00:13:41.143Z,2.51
2023-01-11T00:16:44.455Z,2.51
2023-01-11T00:19:47.264Z,2.52
2023-01-11T00:22:50.812Z,2.51
2023-01-11T00:25:53.412Z,2.41
2023-01-11T00:28:56.318Z,2.49
2023-01-11T00:31:59.181Z,2.53
2023-01-11T00:35:03.550Z,2.67
2023-01-11T00:38:06.426Z,2.66
2023-01-11T00:41:29.713Z,2.58
2023-01-11T00:44:51.199Z,2.56
2023-01-11T00:47:57.092Z,2.45
2023-01-11T00:50:59.952Z,2.31
2023-01-11T00:54:03.219Z,2.43
2023-01-11T00:57:07.517Z,2.51
2023-01-11T01:00:11.339Z,2.62
2023-01-11T01:03:15.549Z,2.75
2023-01-11T01:06:18.690Z,2.82
2023-01-11T01:09:23.002Z,2.76
2023-01-11T01:12:45.002Z,2.78
2023-01-11T01:15:47.973Z,2.66
2023-01-11T01:18:53.557Z,2.74
2023-01-11T01:21:58.998Z,2.72
2023-01-11T01:25:02.289Z,2.71
2023-01-11T01:28:05.306Z,2.63
2023-01-11T01:31:08.609Z,2.66
2023-01-11T01:34:12.502Z,2.65
2023-01-11T01:37:17.445Z,2.66
2023-01-11T01:40:23.026Z,2.64
2023-01-11T01:43:47.593Z,2.68
2023-01-11T01:46:50.736Z,2.64
2023-01-11T01:49:54.149Z,2.56
2023-01-11T01:53:02.448Z,2.56
2023-01-11T01:56:10.899Z,2.61
2023-01-11T01:59:15.813Z,2.60
2023-01-11T02:02:20.868Z,2.48
2023-01-11T02:05:24.150Z,2.33
2023-01-11T02:08:33.152Z,2.32
2023-01-11T02:11:43.379Z,2.31
2023-01-11T02:14:47.497Z,2.26
2023-01-11T02:17:50.966Z,2.13
2023-01-11T02:20:59.745Z,2.08
2023-01-11T02:24:21.817Z,2.07
2023-01-11T02:28:03.007Z,1.95
2023-01-11T02:31:19.692Z,1.86
2023-01-11T02:34:52.442Z,1.91
2023-01-11T02:38:16.258Z,1.83
2023-01-11T02:41:59.977Z,1.61
2023-01-11T02:45:11.571Z,1.67
2023-01-11T02:48:31.480Z,1.55
2023-01-11T02:51:45.107Z,1.50
2023-01-11T02:54:54.198Z,1.49
2023-01-11T02:57:59.945Z,1.42
2023-01-11T03:01:02.700Z,1.53
2023-01-11T03:04:05.789Z,1.55
2023-01-11T03:07:12.075Z,1.55
2023-01-11T03:10:37.461Z,1.60
2023-01-11T03:14:05.373Z,1.58
2023-01-11T03:17:30.484Z,1.56
2023-01-11T03:20:42.783Z,1.49
2023-01-11T03:24:02.317Z,1.65
2023-01-11T03:27:12.204Z,1.69
2023-01-11T03:30:32.003Z,1.77
2023-01-11T03:33:44.667Z,1.70
2023-01-11T03:36:47.881Z,1.63
2023-01-11T03:40:04.206Z,1.54
2023-01-11T03:43:13.534Z,1.53
2023-01-11T03:46:21.222Z,1.43
2023-01-11T03:49:31.703Z,1.33
2023-01-11T03:52:38.509Z,1.28
2023-01-11T03:55:44.891Z,1.25
2023-01-11T03:58:47.808Z,1.16
2023-01-11T04:01:53.949Z,1.11
2023-01-11T04:04:57.107Z,1.17
2023-01-11T04:07:59.995Z,1.21
2023-01-11T04:11:06.177Z,1.26
2023-01-11T04:14:09.141Z,1.30
2023-01-11T04:17:12.310Z,1.35
2023-01-11T04:20:15.329Z,1.25
2023-01-11T04:23:20.012Z,1.22
2023-01-11T04:26:22.969Z,1.06
2023-01-11T04:29:27.340Z,1.01
2023-01-11T04:32:30.242Z,0.96
2023-01-11T04:35:33.420Z,0.86
2023-01-11T04:38:36.567Z,0.90
2023-01-11T04:41:58.771Z,0.95
2023-01-11T04:45:05.489Z,0.91
2023-01-11T04:48:08.749Z,0.84
2023-01-11T04:51:11.930Z,0.78
2023-01-11T04:54:16.865Z,0.67
2023-01-11T04:57:22.540Z,0.70
2023-01-11T05:00:25.719Z,0.68
2023-01-11T05:03:32.812Z,0.64
2023-01-11T05:06:36.083Z,0.64
2023-01-11T05:09:40.974Z,0.56
2023-01-11T05:12:47.090Z,0.53
2023-01-11T05:16:09.529Z,0.43
2023-01-11T05:19:17.476Z,0.45
2023-01-11T05:22:23.163Z,0.60
2023-01-11T05:25:26.650Z,0.57
2023-01-11T05:28:29.712Z,0.45
2023-01-11T05:31:34.625Z,0.47
2023-01-11T05:34:37.739Z,0.44
2023-01-11T05:37:41.147Z,0.49
2023-01-11T05:40:44.112Z,0.47
2023-01-11T05:44:07.602Z,0.40
2023-01-11T05:47:10.606Z,0.33
2023-01-11T05:50:14.089Z,0.33
2023-01-11T05:53:17.162Z,0.39
2023-01-11T05:56:21.322Z,0.31
2023-01-11T05:59:24.330Z,0.27
2023-01-11T06:02:27.696Z,0.20
2023-01-11T06:05:30.964Z,0.24
2023-01-11T06:08:33.997Z,0.25
2023-01-11T06:11:37.268Z,0.28
2023-01-11T06:14:40.253Z,0.27
2023-01-11T06:17:44.470Z,0.22
2023-01-11T06:20:51.275Z,0.20
2023-01-11T06:23:55.580Z,0.20
2023-01-11T06:26:58.535Z,0.18
2023-01-11T06:30:01.825Z,0.20
2023-01-11T06:33:08.211Z,0.14
2023-01-11T06:36:12.479Z,0.16
2023-01-11T06:39:15.881Z,0.16
2023-01-11T06:42:19.232Z,0.18
2023-01-11T06:45:22.450Z,0.22
2023-01-11T06:48:27.661Z,0.31
2023-01-11T06:51:30.687Z,0.32
2023-01-11T06:54:33.905Z,0.38
2023-01-11T06:57:37.141Z,0.42
2023-01-11T07:00:40.411Z,0.45
2023-01-11T07:03:43.949Z,0.52
2023-01-11T07:06:47.728Z,0.55
2023-01-11T07:09:50.690Z,0.63
2023-01-11T07:12:55.086Z,0.65
2023-01-11T07:15:58.193Z,0.71
2023-01-11T07:19:01.430Z,0.69
2023-01-11T07:22:04.757Z,0.77
2023-01-11T07:25:08.405Z,0.84
2023-01-11T07:28:11.471Z,0.88
2023-01-11T07:31:15.021Z,0.98
2023-01-11T07:34:18.056Z,1.02
2023-01-11T07:37:28.210Z,1.15
2023-01-11T07:40:32.355Z,1.19
2023-01-11T07:43:35.605Z,1.23
2023-01-11T07:46:38.749Z,1.27
2023-01-11T07:49:42.105Z,1.36
2023-01-11T07:52:48.801Z,1.38
2023-01-11T07:55:52.160Z,1.53
2023-01-11T07:58:55.258Z,1.49
2023-01-11T08:01:58.591Z,1.58
2023-01-11T08:05:03.487Z,1.71
2023-01-11T08:08:07.066Z,1.66
2023-01-11T08:11:30.409Z,1.74
2023-01-11T08:14:39.373Z,1.80
2023-01-11T08:17:42.665Z,1.96
2023-01-11T08:20:46.546Z,1.89
2023-01-11T08:23:53.756Z,1.90
2023-01-11T08:26:57.118Z,2.03
2023-01-11T08:30:01.745Z,2.23
2023-01-11T08:33:05.828Z,2.11
2023-01-11T08:36:10.532Z,2.14
2023-01-11T08:39:13.472Z,2.32
2023-01-11T08:42:17.221Z,2.11
2023-01-11T08:45:20.206Z,2.11
2023-01-11T08:48:23.597Z,2.14
2023-01-11T08:51:27.809Z,1.89
2023-01-11T08:54:31.356Z,2.14
2023-01-11T08:57:36.725Z,2.20
2023-01-11T09:00:40.845Z,2.35
2023-01-11T09:03:43.840Z,2.52
2023-01-11T09:06:47.273Z,2.53
2023-01-11T09:09:50.638Z,2.79
2023-01-11T09:12:54.521Z,2.72
2023-01-11T09:15:58.337Z,2.78
2023-01-11T09:19:01.580Z,2.82
2023-01-11T09:22:04.538Z,2.78
2023-01-11T09:25:08.627Z,2.89
2023-01-11T09:28:11.537Z,2.83
2023-01-11T09:31:14.807Z,3.00
2023-01-11T09:34:17.988Z,3.03
2023-01-11T09:37:22.998Z,3.14
2023-01-11T09:40:42.456Z,2.93
2023-01-11T09:43:52.771Z,3.14
2023-01-11T09:47:14.668Z,3.12
2023-01-11T09:50:22.259Z,3.22
2023-01-11T09:53:32.247Z,3.30
2023-01-11T09:56:43.991Z,3.45
2023-01-11T10:00:16.653Z,3.69
2023-01-11T10:03:28.060Z,3.30
2023-01-11T10:07:02.905Z,3.46
2023-01-11T10:18:30.323Z,3.82
2023-01-11T10:21:16.263Z,3.96
2023-01-11T10:24:29.525Z,3.84
2023-01-11T10:27:39.610Z,4.00
2023-01-11T10:31:10.098Z,4.29
2023-01-11T10:34:38.781Z,4.39
2023-01-11T10:38:07.279Z,4.26
2023-01-11T10:41:26.010Z,4.45
2023-01-11T10:44:37.956Z,4.48
2023-01-11T10:47:48.880Z,4.56
2023-01-11T10:51:02.358Z,4.47
2023-01-11T10:54:18.255Z,4.51
2023-01-11T10:57:37.802Z,4.72
2023-01-11T11:00:40.908Z,4.81
2023-01-11T11:03:59.160Z,4.82
2023-01-11T11:07:18.701Z,4.97
2023-01-11T11:10:26.915Z,5.10
2023-01-11T11:13:53.178Z,5.28
2023-01-11T11:17:35.658Z,5.42
2023-01-11T11:20:38.935Z,5.46
2023-01-11T11:23:42.353Z,5.55
2023-01-11T11:26:47.872Z,5.60
2023-01-11T11:29:53.566Z,5.95
2023-01-11T11:33:01.058Z,6.26
2023-01-11T11:36:06.293Z,6.27
2023-01-11T11:39:21.505Z,6.32
2023-01-11T11:42:25.113Z,6.76
2023-01-11T11:45:28.516Z,7.10
2023-01-11T11:48:35.121Z,7.84
2023-01-11T11:51:38.650Z,8.40
2023-01-11T11:54:56.221Z,8.86
2023-01-11T11:58:04.585Z,9.66
2023-01-11T12:01:32.805Z,10.21
2023-01-11T12:04:47.511Z,10.56
2023-01-11T12:07:55.863Z,10.14
2023-01-11T12:11:07.130Z,10.37
2023-01-11T12:14:17.729Z,10.32
2023-01-11T12:17:25.645Z,11.02
2023-01-11T12:20:31.258Z,11.81
2023-01-11T12:23:34.638Z,12.18
2023-01-11T12:27:09.836Z,12.47
2023-01-11T12:30:27.276Z,12.05
2023-01-11T12:33:45.755Z,12.46
2023-01-11T12:37:20.473Z,12.96
2023-01-11T12:40:30.428Z,12.36
2023-01-11T12:43:55.790Z,13.32
2023-01-11T12:47:31.438Z,13.47
2023-01-11T12:51:00.835Z,13.96
2023-01-11T12:54:15.636Z,14.09
2023-01-11T12:57:21.620Z,15.26
2023-01-11T13:00:49.690Z,15.54
2023-01-11T13:04:16.809Z,14.81
2023-01-11T13:07:41.669Z,16.19
2023-01-11T13:11:35.263Z,16.14
2023-01-11T13:14:44.705Z,15.39
2023-01-11T13:17:55.884Z,15.24
2023-01-11T13:21:08.645Z,15.63
2023-01-11T13:24:18.214Z,15.17
2023-01-11T13:27:23.668Z,15.80
2023-01-11T13:30:27.220Z,15.23
2023-01-11T13:33:32.734Z,14.15
2023-01-11T13:36:41.263Z,13.90
2023-01-11T13:39:50.591Z,14.65
2023-01-11T13:42:58.015Z,15.09
2023-01-11T13:46:20.817Z,15.37
2023-01-11T13:49:33.228Z,13.75
2023-01-11T13:52:44.921Z,14.41
2023-01-11T13:56:10.297Z,15.33
2023-01-11T13:59:26.871Z,14.20
2023-01-11T14:02:44.618Z,14.47
2023-01-11T14:06:19.209Z,14.18
2023-01-11T14:09:25.151Z,14.57
2023-01-11T14:12:50.127Z,14.58
2023-01-11T14:15:59.856Z,14.82
2023-01-11T14:19:12.080Z,15.39
2023-01-11T14:22:22.203Z,15.46
2023-01-11T14:25:37.232Z,14.88
2023-01-11T14:29:08.634Z,14.63
2023-01-11T14:32:33.169Z,13.79
2023-01-11T14:35:42.087Z,13.10
2023-01-11T14:39:07.291Z,12.25
2023-01-11T14:42:35.092Z,11.70
2023-01-11T14:46:00.764Z,10.73
2023-01-11T14:49:28.402Z,10.77
2023-01-11T14:52:40.134Z,9.73
2023-01-11T14:55:45.302Z,9.65
2023-01-11T14:59:03.765Z,9.33
2023-01-11T15:02:12.494Z,9.23
2023-01-11T15:05:49.070Z,8.82
2023-01-11T15:08:55.245Z,8.36
2023-01-11T15:12:20.970Z,8.07
2023-01-11T15:15:48.227Z,7.74
2023-01-11T15:18:51.536Z,7.37
2023-01-11T15:21:56.053Z,7.05
2023-01-11T15:25:04.636Z,6.80
2023-01-11T15:28:35.696Z,6.59
2023-01-11T15:32:03.363Z,6.40
2023-01-11T15:35:35.595Z,6.16
2023-01-11T15:39:00.921Z,5.91
2023-01-11T15:42:27.104Z,5.79
2023-01-11T15:46:04.303Z,5.69
2023-01-11T15:49:08.195Z,5.61
2023-01-11T15:52:31.456Z,5.52
2023-01-11T15:55:52.700Z,5.38
2023-01-11T15:59:34.242Z,5.22
2023-01-11T16:02:37.164Z,5.09
2023-01-11T16:06:17.653Z,4.91
2023-01-11T16:09:33.162Z,4.73
2023-01-11T16:12:56.484Z,4.57
2023-01-11T16:16:32.435Z,4.45
2023-01-11T16:19:36.456Z,4.49
2023-01-11T16:22:39.537Z,4.40
2023-01-11T16:25:43.675Z,4.42
2023-01-11T16:28:53.276Z,4.35
2023-01-11T16:32:07.974Z,4.33
2023-01-11T16:35:23.719Z,4.25
2023-01-11T16:38:28.026Z,4.21
2023-01-11T16:41:41.425Z,4.20
2023-01-11T16:45:04.524Z,4.11
2023-01-11T16:48:14.990Z,4.00
2023-01-11T16:51:21.685Z,3.96
2023-01-11T16:54:27.719Z,3.89
2023-01-11T16:57:35.942Z,3.87
2023-01-11T17:00:39.968Z,3.88
2023-01-11T17:03:54.972Z,3.88
2023-01-11T17:07:13.675Z,3.91
2023-01-11T17:10:28.875Z,3.88
2023-01-11T17:13:53.344Z,3.78
2023-01-11T17:17:13.070Z,3.69
2023-01-11T17:20:29.936Z,3.63
2023-01-11T17:23:33.291Z,3.53
2023-01-11T17:26:41.346Z,3.53
2023-01-11T17:29:45.229Z,3.55
2023-01-11T17:32:51.833Z,3.42
2023-01-11T17:35:55.966Z,3.36
2023-01-11T17:39:00.642Z,3.25
2023-01-11T17:42:25.044Z,3.20
2023-01-11T17:45:28.192Z,3.16
2023-01-11T17:48:32.056Z,3.18
2023-01-11T17:51:35.332Z,3.09
2023-01-11T17:54:38.617Z,2.97
2023-01-11T17:57:41.579Z,2.98
2023-01-11T18:00:46.651Z,2.96
2023-01-11T18:03:54.269Z,2.89
2023-01-11T18:07:12.580Z,2.78
2023-01-11T18:10:25.090Z,2.75
2023-01-11T18:13:31.633Z,2.77
2023-01-11T18:16:34.859Z,2.59
2023-01-11T18:19:43.007Z,2.53
2023-01-11T18:23:06.858Z,2.52
2023-01-11T18:26:32.151Z,2.56
2023-01-11T18:29:48.313Z,2.61
2023-01-11T18:32:51.584Z,2.64
2023-01-11T18:36:00.917Z,2.69
2023-01-11T18:39:10.743Z,2.70
2023-01-11T18:42:17.341Z,2.66
2023-01-11T18:45:25.062Z,2.62
2023-01-11T18:48:29.073Z,2.63
2023-01-11T18:51:34.557Z,2.68
2023-01-11T18:54:42.177Z,2.60
2023-01-11T18:57:47.754Z,2.46
2023-01-11T19:00:52.213Z,2.43
2023-01-11T19:03:56.007Z,2.38
2023-01-11T19:07:03.501Z,2.37
2023-01-11T19:10:07.729Z,2.38
2023-01-11T19:13:12.672Z,2.46
2023-01-11T19:16:15.839Z,2.46
2023-01-11T19:19:20.402Z,2.33
2023-01-11T19:22:26.759Z,2.22
2023-01-11T19:25:31.727Z,2.18
2023-01-11T19:28:35.320Z,2.12
2023-01-11T19:31:39.216Z,2.09
2023-01-11T19:34:43.456Z,2.13
2023-01-11T19:37:47.832Z,2.09
2023-01-11T19:40:53.733Z,2.12
2023-01-11T19:43:58.050Z,1.97
2023-01-11T19:47:13.344Z,1.85
2023-01-11T19:50:18.125Z,1.77
2023-01-11T19:53:21.710Z,1.75
2023-01-11T19:56:25.668Z,1.77
2023-01-11T19:59:28.892Z,1.75
2023-01-11T20:02:33.744Z,1.73
2023-01-11T20:05:37.456Z,1.79
2023-01-11T20:08:41.401Z,1.85
2023-01-11T20:11:45.867Z,1.88
2023-01-11T20:14:48.949Z,1.89
2023-01-11T20:17:52.625Z,1.95
2023-01-11T20:20:57.063Z,2.06
2023-01-11T20:24:04.913Z,2.14
2023-01-11T20:27:08.846Z,2.21
2023-01-11T20:30:13.101Z,2.06
2023-01-11T20:33:16.632Z,2.01
2023-01-11T20:36:22.167Z,2.06
2023-01-11T20:39:26.521Z,1.90
2023-01-11T20:42:31.274Z,1.86
2023-01-11T20:45:35.406Z,1.82
2023-01-11T20:48:40.186Z,1.66
2023-01-11T20:51:44.830Z,1.50
2023-01-11T20:54:48.215Z,1.51
2023-01-11T20:57:55.784Z,1.64
2023-01-11T21:01:09.783Z,1.53
2023-01-11T21:04:13.591Z,1.66
2023-01-11T21:07:16.986Z,1.65
2023-01-11T21:10:19.906Z,1.66
2023-01-11T21:13:23.591Z,1.68
2023-01-11T21:16:28.412Z,1.72
2023-01-11T21:19:32.787Z,1.78
2023-01-11T21:22:35.679Z,1.74
2023-01-11T21:25:39.957Z,1.78
2023-01-11T21:28:43.677Z,1.73
2023-01-11T21:31:47.103Z,1.73
2023-01-11T21:34:50.204Z,1.75
2023-01-11T21:37:53.516Z,1.83
2023-01-11T21:40:56.418Z,1.85
2023-01-11T21:43:59.741Z,1.91
2023-01-11T21:47:05.974Z,1.89
2023-01-11T21:50:09.776Z,1.92
2023-01-11T21:53:12.712Z,1.97
2023-01-11T21:56:15.957Z,1.88
2023-01-11T21:59:20.506Z,1.84
2023-01-11T22:02:23.699Z,1.82
2023-01-11T22:05:27.019Z,1.87
2023-01-11T22:08:31.575Z,1.84
2023-01-11T22:11:34.838Z,1.81
2023-01-11T22:14:38.693Z,1.85
2023-01-11T22:17:41.937Z,1.90
2023-01-11T22:20:44.920Z,1.96
2023-01-11T22:23:48.441Z,2.01
2023-01-11T22:26:51.410Z,2.04
2023-01-11T22:29:55.001Z,2.17
2023-01-11T22:32:59.820Z,2.25
2023-01-11T22:36:04.638Z,2.32
2023-01-11T22:39:07.756Z,2.35
2023-01-11T22:42:10.978Z,2.41
2023-01-11T22:45:13.918Z,2.47
2023-01-11T22:48:17.307Z,2.50
2023-01-11T22:51:23.564Z,2.56
2023-01-11T22:54:26.817Z,2.55
2023-01-11T22:57:32.159Z,2.44
2023-01-11T23:00:37.060Z,2.06
2023-01-11T23:03:42.163Z,2.02
2023-01-11T23:06:45.331Z,1.89
2023-01-11T23:09:48.992Z,2.01
2023-01-11T23:13:10.705Z,2.06
2023-01-11T23:16:15.025Z,2.02
2023-01-11T23:19:20.399Z,2.00
2023-01-11T23:22:23.302Z,2.00
2023-01-11T23:25:26.632Z,2.03
2023-01-11T23:28:30.822Z,2.05
2023-01-11T23:31:35.475Z,2.16
2023-01-11T23:34:38.725Z,2.23
2023-01-11T23:37:42.034Z,2.22
2023-01-11T23:41:03.811Z,2.29
2023-01-11T23:44:12.403Z,2.19
2023-01-11T23:47:21.253Z,2.43
2023-01-11T23:50:24.567Z,2.45
2023-01-11T23:53:27.576Z,2.50
2023-01-11T23:56:31.893Z,2.51
2023-01-11T23:59:34.837Z,2.59
